Time;durP1;ratioP1;P1;durP2;ratioP2;P2;SDS_P1;SDS_P2;PMS_P1;PMS_P2;Temp;Humidity;BMP_temperature;BMP_pressure;BME280_temperature;BME280_humidity;BME280_pressure;Samples;Min_cycle;Max_cycle;Signal;HPM_P1;HPM_P2
2022/10/04 00:00:45;;;;;;;;;;;;;;;;;;5054745;28;19947;-56
2022/10/04 00:03:17;;;;;;;;;;;;;;;;;;5055172;28;19932;-56
2022/10/04 00:05:48;;;;;;;;;;;;;;;;;;5054709;28;19924;-55
2022/10/04 00:08:22;;;;;;;;;;;;;;;;;;5054504;28;19940;-55
2022/10/04 00:11:01;;;;;;;;;;;;;;;;;;5054624;28;19975;-60
2022/10/04 00:13:28;;;;;;;;;;;;;;;;;;5054516;28;19925;-56
2022/10/04 00:15:56;;;;;;;;;;;;;;;;;;5054300;28;20467;-55
2022/10/04 00:18:27;;;;;;;;;;;;;;;;;;5054514;28;19931;-53
2022/10/04 00:21:01;;;;;;;;;;;;;;;;;;5054453;28;19979;-57
2022/10/04 00:23:30;;;;;;;;;;;;;;;;;;5054347;28;19975;-56
2022/10/04 00:25:57;;;;;;;;;;;;;;;;;;5054030;28;19929;-53
2022/10/04 00:28:29;;;;;;;;;;;;;;;;;;5054131;28;19924;-55
2022/10/04 00:31:10;;;;;;;;;;;;;;;;;;5054212;28;20441;-54
2022/10/04 00:33:37;;;;;;;;;;;;;;;;;;5054289;28;19975;-56
2022/10/04 00:36:19;;;;;;;;;;;;;;;;;;5054216;28;19924;-53
2022/10/04 00:39:01;;;;;;;;;;;;;;;;;;5053148;28;20293;-53
2022/10/04 00:41:28;;;;;;;;;;;;;;;;;;5056097;28;19972;-48
2022/10/04 00:43:57;;;;;;;;;;;;;;;;;;5059006;28;19955;-49
2022/10/04 00:46:27;;;;;;;;;;;;;;;;;;5058956;28;20305;-48
2022/10/04 00:48:56;;;;;;;;;;;;;;;;;;5059145;28;19925;-49
2022/10/04 00:51:25;;;;;;;;;;;;;;;;;;5059154;28;19924;-52
2022/10/04 00:53:56;;;;;;;;;;;;;;;;;;5058810;28;19932;-48
2022/10/04 00:56:26;;;;;;;;;;;;;;;;;;5058636;28;19932;-52
2022/10/04 00:59:07;;;;;;;;;;;;;;;;;;5058761;28;19932;-48
2022/10/04 01:01:36;;;;;;;;;;;;;;;;;;5056373;28;19940;-50
2022/10/04 01:04:04;;;;;;;;;;;;;;;;;;5058867;28;19925;-49
2022/10/04 01:06:31;;;;;;;;;;;;;;;;;;5057532;28;19963;-53
2022/10/04 01:09:02;;;;;;;;;;;;;;;;;;5057557;28;19928;-48
2022/10/04 01:11:29;;;;;;;;;;;;;;;;;;5057577;28;19925;-48
2022/10/04 01:13:57;;;;;;;;;;;;;;;;;;5057093;28;19925;-48
2022/10/04 01:16:56;;;;;;;;;;;;;;;;;;5057285;28;19925;-49
2022/10/04 01:19:29;;;;;;;;;;;;;;;;;;5054708;28;19928;-48
2022/10/04 01:22:00;;;;;;;;;;;;;;;;;;5057469;28;19970;-52
2022/10/04 01:24:33;;;;;;;;;;;;;;;;;;5058074;28;20286;-50
2022/10/04 01:27:00;;;;;;;;;;;;;;;;;;5058096;28;20346;-50
2022/10/04 01:29:28;;;;;;;;;;;;;;;;;;5057727;28;19925;-51
2022/10/04 01:31:55;;;;;;;;;;;;;;;;;;5058362;28;19926;-51
2022/10/04 01:34:23;;;;;;;;;;;;;;;;;;5058279;28;20386;-51
2022/10/04 01:36:51;;;;;;;;;;;;;;;;;;5058579;28;20382;-49
2022/10/04 01:39:18;;;;;;;;;;;;;;;;;;5057787;28;19935;-48
2022/10/04 01:41:51;;;;;;;;;;;;;;;;;;5057844;28;19948;-52
2022/10/04 01:44:21;;;;;;;;;;;;;;;;;;5058256;28;20011;-52
2022/10/04 01:46:49;;;;;;;;;;;;;;;;;;5058029;28;20439;-53
2022/10/04 01:49:17;;;;;;;;;;;;;;;;;;5057577;28;19925;-52
2022/10/04 01:51:45;;;;;;;;;;;;;;;;;;5056795;28;19925;-52
2022/10/04 01:54:12;;;;;;;;;;;;;;;;;;5056900;28;20045;-49
2022/10/04 01:56:41;;;;;;;;;;;;;;;;;;5056449;28;19971;-50
2022/10/04 01:59:17;;;;;;;;;;;;;;;;;;5056663;28;19975;-52
2022/10/04 02:01:47;;;;;;;;;;;;;;;;;;5057706;28;19946;-52
2022/10/04 02:04:15;;;;;;;;;;;;;;;;;;5076641;28;19925;-50
2022/10/04 02:06:43;;;;;;;;;;;;;;;;;;5076954;28;19929;-52
2022/10/04 02:09:11;;;;;;;;;;;;;;;;;;5076660;28;20384;-53
2022/10/04 02:11:40;;;;;;;;;;;;;;;;;;5081892;22;19974;-51
2022/10/04 02:14:11;;;;;;;;;;;;;;;;;;5072929;28;19924;-52
2022/10/04 02:16:39;;;;;;;;;;;;;;;;;;5072945;28;19924;-54
2022/10/04 02:19:08;;;;;;;;;;;;;;;;;;5072335;28;19925;-55
2022/10/04 02:21:35;;;;;;;;;;;;;;;;;;5072091;28;19985;-52
2022/10/04 02:24:02;;;;;;;;;;;;;;;;;;5072254;28;20298;-52
2022/10/04 02:26:28;;;;;;;;;;;;;;;;;;5072607;28;20296;-56
2022/10/04 02:28:55;;;;;;;;;;;;;;;;;;5072075;28;20027;-57
2022/10/04 02:34:07;;;;;;;;;;;;;;;;;;5072251;28;19932;-55
2022/10/04 02:36:35;;;;;;;;;;;;;;;;;;5072257;28;19929;-51
2022/10/04 02:39:03;;;;;;;;;;;;;;;;;;5072536;28;19924;-57
2022/10/04 02:41:31;;;;;;;;;;;;;;;;;;5072301;28;19977;-56
2022/10/04 02:43:59;;;;;;;;;;;;;;;;;;5071980;28;20019;-56
2022/10/04 02:46:28;;;;;;;;;;;;;;;;;;5072505;28;19931;-54
2022/10/04 02:48:57;;;;;;;;;;;;;;;;;;5072060;28;19924;-56
2022/10/04 02:51:26;;;;;;;;;;;;;;;;;;5072303;28;19928;-57
2022/10/04 02:53:57;;;;;;;;;;;;;;;;;;5071860;28;19928;-56
2022/10/04 02:56:24;;;;;;;;;;;;;;;;;;5072130;28;20414;-56
2022/10/04 02:58:51;;;;;;;;;;;;;;;;;;5071925;28;19931;-55
2022/10/04 03:01:25;;;;;;;;;;;;;;;;;;5071982;28;20011;-55
2022/10/04 03:03:53;;;;;;;;;;;;;;;;;;5072070;28;19987;-57
2022/10/04 03:06:21;;;;;;;;;;;;;;;;;;5072264;28;19982;-53
2022/10/04 03:08:50;;;;;;;;;;;;;;;;;;5071958;28;19924;-53
2022/10/04 03:11:19;;;;;;;;;;;;;;;;;;5071832;28;19971;-55
2022/10/04 03:13:47;;;;;;;;;;;;;;;;;;5071643;28;19929;-52
2022/10/04 03:16:14;;;;;;;;;;;;;;;;;;5071897;28;19929;-53
2022/10/04 03:18:40;;;;;;;;;;;;;;;;;;5071862;28;19931;-56
2022/10/04 03:21:09;;;;;;;;;;;;;;;;;;5071776;28;19974;-57
2022/10/04 03:23:36;;;;;;;;;;;;;;;;;;5071889;28;20439;-57
2022/10/04 03:26:13;;;;;;;;;;;;;;;;;;5071685;28;20389;-56
2022/10/04 03:28:40;;;;;;;;;;;;;;;;;;5071805;28;19932;-54
2022/10/04 03:31:06;;;;;;;;;;;;;;;;;;5071653;28;20327;-55
2022/10/04 03:33:33;;;;;;;;;;;;;;;;;;5073574;28;20373;-56
2022/10/04 03:36:00;;;;;;;;;;;;;;;;;;5075177;28;19998;-57
2022/10/04 03:38:27;;;;;;;;;;;;;;;;;;5075142;28;19924;-54
2022/10/04 03:40:55;;;;;;;;;;;;;;;;;;5075079;28;20019;-57
2022/10/04 03:43:25;;;;;;;;;;;;;;;;;;5075041;28;19924;-57
2022/10/04 03:45:52;;;;;;;;;;;;;;;;;;5074953;28;19978;-56
2022/10/04 03:48:25;;;;;;;;;;;;;;;;;;5075062;28;19924;-56
2022/10/04 03:50:53;;;;;;;;;;;;;;;;;;5074925;28;19924;-54
2022/10/04 03:53:27;;;;;;;;;;;;;;;;;;5075002;28;19924;-57
2022/10/04 03:55:53;;;;;;;;;;;;;;;;;;5074746;28;20313;-56
2022/10/04 03:58:20;;;;;;;;;;;;;;;;;;5074908;28;19974;-56
2022/10/04 04:00:56;;;;;;;;;;;;;;;;;;5074827;28;20461;-54
2022/10/04 04:03:25;;;;;;;;;;;;;;;;;;5074856;28;20381;-55
2022/10/04 04:05:53;;;;;;;;;;;;;;;;;;5074686;28;19925;-55
2022/10/04 04:08:25;;;;;;;;;;;;;;;;;;5074747;28;19974;-53
2022/10/04 04:10:54;;;;;;;;;;;;;;;;;;5074473;28;19928;-57
2022/10/04 04:13:24;;;;;;;;;;;;;;;;;;5074875;28;19924;-55
2022/10/04 04:15:54;;;;;;;;;;;;;;;;;;5074715;28;20007;-56
2022/10/04 04:18:21;;;;;;;;;;;;;;;;;;5074848;28;19925;-56
2022/10/04 04:20:50;;;;;;;;;;;;;;;;;;5074405;28;19932;-56
2022/10/04 04:23:22;;;;;;;;;;;;;;;;;;5074342;28;19931;-55
2022/10/04 04:25:50;;;;;;;;;;;;;;;;;;5074443;28;20396;-57
2022/10/04 04:28:24;;;;;;;;;;;;;;;;;;5074542;28;19985;-56
2022/10/04 04:30:53;;;;;;;;;;;;;;;;;;5074453;28;20015;-56
2022/10/04 04:33:23;;;;;;;;;;;;;;;;;;5073933;28;20282;-54
2022/10/04 04:35:54;;;;;;;;;;;;;;;;;;5074008;28;20274;-56
2022/10/04 04:38:21;;;;;;;;;;;;;;;;;;5073852;28;20293;-53
2022/10/04 04:40:49;;;;;;;;;;;;;;;;;;5073748;28;19981;-57
2022/10/04 04:43:17;;;;;;;;;;;;;;;;;;5074044;28;20332;-57
2022/10/04 04:45:47;;;;;;;;;;;;;;;;;;5073883;28;20011;-53
2022/10/04 04:48:16;;;;;;;;;;;;;;;;;;5073666;28;19936;-55
2022/10/04 04:50:42;;;;;;;;;;;;;;;;;;5073892;28;19931;-56
2022/10/04 04:53:12;;;;;;;;;;;;;;;;;;5073752;28;19924;-57
2022/10/04 04:55:40;;;;;;;;;;;;;;;;;;5073731;28;19924;-56
2022/10/04 04:58:08;;;;;;;;;;;;;;;;;;5073763;28;19924;-56
2022/10/04 05:00:37;;;;;;;;;;;;;;;;;;5073459;28;20011;-56
2022/10/04 05:03:05;;;;;;;;;;;;;;;;;;5073908;28;19946;-57
2022/10/04 05:05:33;;;;;;;;;;;;;;;;;;5073570;28;19948;-55
2022/10/04 05:08:04;;;;;;;;;;;;;;;;;;5073589;28;19978;-56
2022/10/04 05:10:32;;;;;;;;;;;;;;;;;;5073435;28;19935;-55
2022/10/04 05:12:59;;;;;;;;;;;;;;;;;;5073501;28;19924;-58
2022/10/04 05:15:26;;;;;;;;;;;;;;;;;;5073262;28;20020;-56
2022/10/04 05:17:53;;;;;;;;;;;;;;;;;;5073586;28;19924;-57
2022/10/04 05:20:20;;;;;;;;;;;;;;;;;;5073953;28;20541;-54
2022/10/04 05:22:49;;;;;;;;;;;;;;;;;;5074177;28;19935;-57
2022/10/04 05:25:18;;;;;;;;;;;;;;;;;;5074014;28;20112;-53
2022/10/04 05:27:45;;;;;;;;;;;;;;;;;;5074375;28;19925;-54
2022/10/04 05:30:16;;;;;;;;;;;;;;;;;;5073321;28;19924;-52
2022/10/04 05:35:15;;;;;;;;;;;;;;;;;;5048656;28;20537;-56
2022/10/04 05:37:48;;;;;;;;;;;;;;;;;;5052830;28;19928;-56
2022/10/04 05:40:23;;;;;;;;;;;;;;;;;;5052671;28;19994;-54
2022/10/04 05:42:51;;;;;;;;;;;;;;;;;;5052780;28;20012;-55
2022/10/04 05:45:18;;;;;;;;;;;;;;;;;;5052987;28;19983;-53
2022/10/04 05:47:46;;;;;;;;;;;;;;;;;;5052702;28;19924;-52
2022/10/04 05:50:16;;;;;;;;;;;;;;;;;;5052532;28;20369;-57
2022/10/04 05:52:43;;;;;;;;;;;;;;;;;;5052813;28;19925;-53
2022/10/04 05:55:18;;;;;;;;;;;;;;;;;;5052309;28;20443;-54
2022/10/04 05:57:49;;;;;;;;;;;;;;;;;;5052870;28;20278;-52
2022/10/04 06:00:17;;;;;;;;;;;;;;;;;;5052367;28;19925;-54
2022/10/04 06:03:02;;;;;;;;;;;;;;;;;;5052160;28;19929;-54
2022/10/04 06:05:41;;;;;;;;;;;;;;;;;;5052215;28;19970;-53
2022/10/04 06:08:13;;;;;;;;;;;;;;;;;;5052177;28;19967;-54
2022/10/04 06:10:57;;;;;;;;;;;;;;;;;;5052085;28;20402;-57
2022/10/04 06:13:40;;;;;;;;;;;;;;;;;;5051826;28;20267;-53
2022/10/04 06:16:14;;;;;;;;;;;;;;;;;;5052319;28;19932;-52
2022/10/04 06:18:48;;;;;;;;;;;;;;;;;;5052080;28;20440;-51
2022/10/04 06:21:19;;;;;;;;;;;;;;;;;;5052046;28;19986;-54
2022/10/04 06:23:47;;;;;;;;;;;;;;;;;;5052162;28;19978;-55
2022/10/04 06:26:15;;;;;;;;;;;;;;;;;;5052305;28;19929;-53
2022/10/04 06:28:45;;;;;;;;;;;;;;;;;;5051863;28;19933;-53
2022/10/04 06:31:20;;;;;;;;;;;;;;;;;;5051881;28;19929;-52
2022/10/04 06:33:57;;;;;;;;;;;;;;;;;;5051800;28;19924;-53
2022/10/04 06:36:38;;;;;;;;;;;;;;;;;;5051894;28;19925;-52
2022/10/04 06:39:20;;;;;;;;;;;;;;;;;;5031359;28;19932;-53
2022/10/04 06:41:54;;;;;;;;;;;;;;;;;;5051999;28;20503;-52
2022/10/04 06:44:29;;;;;;;;;;;;;;;;;;5051564;28;19983;-55
2022/10/04 06:47:00;;;;;;;;;;;;;;;;;;5051431;28;19925;-51
2022/10/04 06:49:33;;;;;;;;;;;;;;;;;;5051505;28;19925;-51
2022/10/04 06:52:20;;;;;;;;;;;;;;;;;;5051501;28;19925;-57
2022/10/04 06:54:55;;;;;;;;;;;;;;;;;;5010217;28;19932;-55
2022/10/04 06:57:31;;;;;;;;;;;;;;;;;;5051631;28;19929;-52
2022/10/04 07:00:08;;;;;;;;;;;;;;;;;;5046348;28;20414;-55
2022/10/04 07:02:38;;;;;;;;;;;;;;;;;;5040824;28;19987;-50
2022/10/04 07:05:11;;;;;;;;;;;;;;;;;;5030151;28;19972;-55
2022/10/04 07:07:40;;;;;;;;;;;;;;;;;;5030595;28;19933;-53
2022/10/04 07:10:20;;;;;;;;;;;;;;;;;;5033845;28;19925;-57
2022/10/04 07:12:49;;;;;;;;;;;;;;;;;;5033985;28;19956;-58
2022/10/04 07:15:19;;;;;;;;;;;;;;;;;;5033369;28;20394;-56
2022/10/04 07:17:47;;;;;;;;;;;;;;;;;;5033725;28;20662;-54
2022/10/04 07:20:18;;;;;;;;;;;;;;;;;;5033325;28;19932;-55
2022/10/04 07:22:49;;;;;;;;;;;;;;;;;;5033641;28;20302;-52
2022/10/04 07:25:19;;;;;;;;;;;;;;;;;;5033864;28;19931;-52
2022/10/04 07:29:19;;;;;;;;;;;;;;;;;;5033500;28;20271;-55
2022/10/04 07:30:37;;;;;;;;;;;;;;;;;;5032773;28;20279;-51
2022/10/04 07:33:07;;;;;;;;;;;;;;;;;;5033355;28;19925;-53
2022/10/04 07:35:35;;;;;;;;;;;;;;;;;;5033613;28;20031;-52
2022/10/04 07:38:08;;;;;;;;;;;;;;;;;;5033402;28;19929;-53
2022/10/04 07:40:37;;;;;;;;;;;;;;;;;;5033030;28;19925;-54
2022/10/04 07:43:05;;;;;;;;;;;;;;;;;;5041013;28;20348;-56
2022/10/04 07:45:33;;;;;;;;;;;;;;;;;;5052640;28;19924;-54
2022/10/04 07:48:04;;;;;;;;;;;;;;;;;;5052102;28;19925;-65
2022/10/04 07:50:35;;;;;;;;;;;;;;;;;;5052387;28;19929;-49
2022/10/04 07:53:05;;;;;;;;;;;;;;;;;;5052733;28;20011;-55
2022/10/04 07:55:37;;;;;;;;;;;;;;;;;;5052842;28;19929;-53
2022/10/04 07:58:14;;;;;;;;;;;;;;;;;;5052667;28;19928;-55
2022/10/04 08:00:47;;;;;;;;;;;;;;;;;;5052532;28;19929;-54
2022/10/04 08:03:20;;;;;;;;;;;;;;;;;;5051698;28;20011;-56
2022/10/04 08:05:48;;;;;;;;;;;;;;;;;;5051564;28;19990;-56
2022/10/04 08:08:26;;;;;;;;;;;;;;;;;;5052774;28;20373;-52
2022/10/04 08:10:55;;;;;;;;;;;;;;;;;;5052493;28;19951;-54
2022/10/04 08:13:26;;;;;;;;;;;;;;;;;;5052477;28;20019;-58
2022/10/04 08:15:52;;;;;;;;;;;;;;;;;;5052230;28;19925;-56
2022/10/04 08:18:31;;;;;;;;;;;;;;;;;;5051758;28;19925;-54
2022/10/04 08:20:58;;;;;;;;;;;;;;;;;;5051984;28;19931;-51
2022/10/04 08:23:40;;;;;;;;;;;;;;;;;;5052403;28;19929;-52
2022/10/04 08:26:13;;;;;;;;;;;;;;;;;;5052680;28;20417;-52
2022/10/04 08:31:37;;;;;;;;;;;;;;;;;;5052433;28;19935;-55
2022/10/04 08:34:12;;;;;;;;;;;;;;;;;;5052052;28;19929;-57
2022/10/04 08:36:44;;;;;;;;;;;;;;;;;;5052089;28;19936;-55
2022/10/04 08:39:20;;;;;;;;;;;;;;;;;;5052157;28;19932;-54
2022/10/04 08:42:05;;;;;;;;;;;;;;;;;;5052057;28;19925;-57
2022/10/04 08:44:44;;;;;;;;;;;;;;;;;;5052192;28;19925;-54
2022/10/04 08:47:28;;;;;;;;;;;;;;;;;;5051475;28;20451;-53
2022/10/04 08:50:12;;;;;;;;;;;;;;;;;;5052040;28;19975;-55
2022/10/04 08:52:50;;;;;;;;;;;;;;;;;;5041897;28;19933;-53
2022/10/04 08:55:36;;;;;;;;;;;;;;;;;;5051909;28;19994;-54
2022/10/04 08:58:12;;;;;;;;;;;;;;;;;;5051860;28;19925;-56
2022/10/04 09:00:48;;;;;;;;;;;;;;;;;;5051473;28;19935;-54
2022/10/04 09:03:35;;;;;;;;;;;;;;;;;;5051594;28;19978;-55
2022/10/04 09:06:17;;;;;;;;;;;;;;;;;;5051348;28;19979;-56
2022/10/04 09:09:12;;;;;;;;;;;;;;;;;;5048212;28;19929;-54
2022/10/04 09:11:58;;;;;;;;;;;;;;;;;;5051226;28;19929;-54
2022/10/04 09:14:33;;;;;;;;;;;;;;;;;;5050839;28;19981;-55
2022/10/04 09:17:07;;;;;;;;;;;;;;;;;;5051353;28;20478;-51
2022/10/04 09:19:40;;;;;;;;;;;;;;;;;;5051085;28;19931;-53
2022/10/04 09:22:18;;;;;;;;;;;;;;;;;;5051369;28;19925;-52
2022/10/04 09:24:53;;;;;;;;;;;;;;;;;;5051447;28;19924;-55
2022/10/04 09:27:30;;;;;;;;;;;;;;;;;;5051252;28;19929;-56
2022/10/04 09:30:04;;;;;;;;;;;;;;;;;;5031636;28;20549;-52
2022/10/04 09:32:58;;;;;;;;;;;;;;;;;;5050922;28;20443;-54
2022/10/04 09:35:48;;;;;;;;;;;;;;;;;;4992793;28;19924;-53
2022/10/04 09:38:23;;;;;;;;;;;;;;;;;;5051206;28;19933;-55
2022/10/04 09:41:07;;;;;;;;;;;;;;;;;;5050963;28;19935;-54
2022/10/04 09:43:59;;;;;;;;;;;;;;;;;;5050151;28;19936;-53
2022/10/04 09:46:47;;;;;;;;;;;;;;;;;;5026449;28;19924;-55
2022/10/04 09:49:22;;;;;;;;;;;;;;;;;;5050746;28;19928;-57
2022/10/04 09:52:02;;;;;;;;;;;;;;;;;;5050568;28;19925;-56
2022/10/04 09:54:49;;;;;;;;;;;;;;;;;;5050798;28;19971;-55
2022/10/04 09:57:26;;;;;;;;;;;;;;;;;;5008636;28;19970;-53
2022/10/04 10:00:05;;;;;;;;;;;;;;;;;;5050308;28;19929;-52
2022/10/04 10:02:47;;;;;;;;;;;;;;;;;;5042159;28;19951;-54
2022/10/04 10:05:19;;;;;;;;;;;;;;;;;;5030526;28;19926;-54
2022/10/04 10:07:49;;;;;;;;;;;;;;;;;;5030545;28;19929;-52
2022/10/04 10:16:00;;;;;;;;;;;;;;;;;;5030998;28;20454;-51
2022/10/04 10:18:32;;;;;;;;;;;;;;;;;;5030291;28;19925;-54
2022/10/04 10:21:10;;;;;;;;;;;;;;;;;;5030368;28;19998;-54
2022/10/04 10:24:00;;;;;;;;;;;;;;;;;;5030949;28;19925;-52
2022/10/04 10:26:36;;;;;;;;;;;;;;;;;;5030676;28;19925;-57
2022/10/04 10:29:16;;;;;;;;;;;;;;;;;;5030213;28;19925;-54
2022/10/04 10:32:00;;;;;;;;;;;;;;;;;;5030194;28;20329;-56
2022/10/04 10:34:36;;;;;;;;;;;;;;;;;;4999569;28;19932;-56
2022/10/04 10:37:09;;;;;;;;;;;;;;;;;;5030726;28;19925;-66
2022/10/04 10:40:00;;;;;;;;;;;;;;;;;;5030654;28;19933;-66
2022/10/04 10:42:36;;;;;;;;;;;;;;;;;;5032344;28;19926;-56
2022/10/04 10:45:15;;;;;;;;;;;;;;;;;;5034866;28;20580;-54
2022/10/04 10:47:48;;;;;;;;;;;;;;;;;;5034514;28;19983;-50
2022/10/04 10:50:57;;;;;;;;;;;;;;;;;;5033740;28;19929;-54
2022/10/04 10:53:36;;;;;;;;;;;;;;;;;;5016982;28;19925;-52
2022/10/04 10:56:18;;;;;;;;;;;;;;;;;;5034549;28;20275;-53
2022/10/04 10:58:52;;;;;;;;;;;;;;;;;;5034304;28;19931;-54
2022/10/04 11:01:34;;;;;;;;;;;;;;;;;;5034201;28;19925;-52
2022/10/04 11:04:15;;;;;;;;;;;;;;;;;;5025051;28;19929;-52
2022/10/04 11:06:56;;;;;;;;;;;;;;;;;;5033791;28;19925;-55
2022/10/04 11:09:39;;;;;;;;;;;;;;;;;;5000743;28;20283;-58
2022/10/04 11:12:33;;;;;;;;;;;;;;;;;;5034411;28;19929;-51
2022/10/04 11:15:20;;;;;;;;;;;;;;;;;;5033654;28;19947;-57
2022/10/04 11:18:03;;;;;;;;;;;;;;;;;;5008201;28;19933;-55
2022/10/04 11:20:51;;;;;;;;;;;;;;;;;;5033587;28;19933;-55
2022/10/04 11:23:36;;;;;;;;;;;;;;;;;;5008198;28;19948;-55
2022/10/04 11:26:20;;;;;;;;;;;;;;;;;;5033680;28;19932;-55
2022/10/04 11:28:52;;;;;;;;;;;;;;;;;;5033439;28;19925;-55
2022/10/04 11:31:33;;;;;;;;;;;;;;;;;;5033994;28;20409;-56
2022/10/04 11:34:11;;;;;;;;;;;;;;;;;;5033095;28;20286;-51
2022/10/04 11:36:43;;;;;;;;;;;;;;;;;;5033469;28;19925;-55
2022/10/04 11:39:29;;;;;;;;;;;;;;;;;;5033281;28;19929;-56
2022/10/04 11:41:56;;;;;;;;;;;;;;;;;;5033526;28;19925;-52
2022/10/04 11:44:54;;;;;;;;;;;;;;;;;;5033366;28;19933;-53
2022/10/04 11:47:28;;;;;;;;;;;;;;;;;;4971992;28;19984;-55
2022/10/04 11:50:03;;;;;;;;;;;;;;;;;;5021830;28;19925;-53
2022/10/04 11:52:48;;;;;;;;;;;;;;;;;;5033127;28;19932;-53
2022/10/04 11:55:30;;;;;;;;;;;;;;;;;;5032424;28;20453;-53
2022/10/04 11:57:58;;;;;;;;;;;;;;;;;;5033321;28;20337;-54
2022/10/04 12:00:26;;;;;;;;;;;;;;;;;;5033334;28;20330;-51
2022/10/04 12:03:23;;;;;;;;;;;;;;;;;;5043796;28;19925;-55
2022/10/04 12:06:02;;;;;;;;;;;;;;;;;;5052885;28;19925;-57
2022/10/04 12:08:37;;;;;;;;;;;;;;;;;;5053012;28;20000;-54
2022/10/04 12:11:22;;;;;;;;;;;;;;;;;;5052539;28;19925;-56
2022/10/04 12:13:54;;;;;;;;;;;;;;;;;;5052976;28;19928;-57
2022/10/04 12:16:30;;;;;;;;;;;;;;;;;;5052979;28;19936;-55
2022/10/04 12:19:14;;;;;;;;;;;;;;;;;;5052558;28;19925;-52
2022/10/04 12:21:45;;;;;;;;;;;;;;;;;;5051777;28;19925;-54
2022/10/04 12:24:20;;;;;;;;;;;;;;;;;;5052437;28;19928;-52
2022/10/04 12:27:16;;;;;;;;;;;;;;;;;;5052426;28;19925;-54
2022/10/04 12:30:01;;;;;;;;;;;;;;;;;;5052464;28;19925;-55
2022/10/04 12:32:32;;;;;;;;;;;;;;;;;;5052252;28;19936;-52
2022/10/04 12:35:00;;;;;;;;;;;;;;;;;;5052428;28;19932;-55
2022/10/04 12:37:32;;;;;;;;;;;;;;;;;;5052186;28;20310;-55
2022/10/04 12:40:19;;;;;;;;;;;;;;;;;;5052221;28;20400;-55
2022/10/04 12:42:51;;;;;;;;;;;;;;;;;;5052059;28;19936;-56
2022/10/04 12:45:35;;;;;;;;;;;;;;;;;;5052292;28;19924;-56
2022/10/04 12:48:17;;;;;;;;;;;;;;;;;;5041718;28;20433;-52
2022/10/04 12:50:53;;;;;;;;;;;;;;;;;;5049293;28;19971;-53
2022/10/04 12:53:33;;;;;;;;;;;;;;;;;;5051845;28;19925;-55
2022/10/04 12:56:05;;;;;;;;;;;;;;;;;;5051984;28;20370;-54
2022/10/04 12:58:42;;;;;;;;;;;;;;;;;;5051613;28;19932;-56
2022/10/04 13:01:13;;;;;;;;;;;;;;;;;;5052098;28;19975;-55
2022/10/04 13:03:59;;;;;;;;;;;;;;;;;;5034189;28;20092;-56
2022/10/04 13:06:31;;;;;;;;;;;;;;;;;;5031183;28;19987;-56
2022/10/04 13:09:06;;;;;;;;;;;;;;;;;;5031656;28;19948;-58
2022/10/04 13:11:51;;;;;;;;;;;;;;;;;;5031297;28;19925;-56
2022/10/04 13:14:29;;;;;;;;;;;;;;;;;;5031830;28;19983;-56
2022/10/04 13:16:57;;;;;;;;;;;;;;;;;;5031673;28;20356;-55
2022/10/04 13:19:27;;;;;;;;;;;;;;;;;;5031035;28;19925;-54
2022/10/04 13:22:16;;;;;;;;;;;;;;;;;;5031526;28;19925;-52
2022/10/04 13:24:55;;;;;;;;;;;;;;;;;;5031611;28;20575;-52
2022/10/04 13:27:27;;;;;;;;;;;;;;;;;;5031489;28;19954;-57
2022/10/04 13:30:01;;;;;;;;;;;;;;;;;;5031305;28;19933;-53
2022/10/04 13:32:30;;;;;;;;;;;;;;;;;;5031069;28;19925;-53
2022/10/04 13:35:01;;;;;;;;;;;;;;;;;;5031115;28;19929;-56
2022/10/04 13:37:32;;;;;;;;;;;;;;;;;;5031643;28;19925;-55
2022/10/04 13:40:13;;;;;;;;;;;;;;;;;;5031066;28;19931;-55
2022/10/04 13:42:48;;;;;;;;;;;;;;;;;;5030994;28;19941;-55
2022/10/04 13:45:22;;;;;;;;;;;;;;;;;;5031120;28;20304;-57
2022/10/04 13:48:18;;;;;;;;;;;;;;;;;;5030996;28;19975;-56
2022/10/04 13:50:52;;;;;;;;;;;;;;;;;;5030938;28;20020;-51
2022/10/04 13:56:36;;;;;;;;;;;;;;;;;;5031471;28;19970;-61
2022/10/04 13:59:07;;;;;;;;;;;;;;;;;;5031208;28;19925;-61
2022/10/04 14:01:49;;;;;;;;;;;;;;;;;;5031017;28;19925;-60
2022/10/04 14:04:23;;;;;;;;;;;;;;;;;;5031344;28;19948;-60
2022/10/04 14:07:06;;;;;;;;;;;;;;;;;;5031152;28;19980;-61
2022/10/04 14:09:50;;;;;;;;;;;;;;;;;;5031142;28;20382;-61
2022/10/04 14:12:35;;;;;;;;;;;;;;;;;;5030328;28;19968;-60
2022/10/04 14:15:16;;;;;;;;;;;;;;;;;;5030767;28;19987;-60
2022/10/04 14:18:02;;;;;;;;;;;;;;;;;;5030814;28;20425;-60
2022/10/04 14:20:46;;;;;;;;;;;;;;;;;;5030915;28;19991;-60
2022/10/04 14:23:23;;;;;;;;;;;;;;;;;;5031016;28;19932;-60
2022/10/04 14:26:11;;;;;;;;;;;;;;;;;;5030571;28;20366;-59
2022/10/04 14:28:50;;;;;;;;;;;;;;;;;;5030324;28;19983;-60
2022/10/04 14:31:32;;;;;;;;;;;;;;;;;;5030834;28;19925;-60
2022/10/04 14:34:10;;;;;;;;;;;;;;;;;;5030359;28;19929;-60
2022/10/04 14:37:01;;;;;;;;;;;;;;;;;;5030970;28;20444;-60
2022/10/04 14:39:39;;;;;;;;;;;;;;;;;;4974436;28;20025;-61
2022/10/04 14:42:22;;;;;;;;;;;;;;;;;;5029827;28;19929;-61
2022/10/04 14:45:03;;;;;;;;;;;;;;;;;;5030371;28;19999;-60
2022/10/04 14:47:37;;;;;;;;;;;;;;;;;;5030315;28;19925;-59
2022/10/04 14:50:17;;;;;;;;;;;;;;;;;;5025019;28;19925;-60
2022/10/04 14:52:50;;;;;;;;;;;;;;;;;;5029846;28;20434;-60
2022/10/04 14:55:31;;;;;;;;;;;;;;;;;;5030270;28;20294;-60
2022/10/04 14:58:02;;;;;;;;;;;;;;;;;;5029654;28;19929;-60
2022/10/04 15:00:33;;;;;;;;;;;;;;;;;;5029423;28;19987;-59
2022/10/04 15:03:20;;;;;;;;;;;;;;;;;;5030492;28;19932;-60
2022/10/04 15:06:05;;;;;;;;;;;;;;;;;;5025275;28;19932;-60
2022/10/04 15:08:42;;;;;;;;;;;;;;;;;;5030066;28;19925;-60
2022/10/04 15:11:11;;;;;;;;;;;;;;;;;;5030378;28;19991;-60
2022/10/04 15:13:41;;;;;;;;;;;;;;;;;;5030396;28;20000;-61
2022/10/04 15:16:16;;;;;;;;;;;;;;;;;;5031008;28;19925;-60
2022/10/04 15:18:52;;;;;;;;;;;;;;;;;;5029953;28;19929;-61
2022/10/04 15:21:38;;;;;;;;;;;;;;;;;;5030365;28;19925;-60
2022/10/04 15:24:22;;;;;;;;;;;;;;;;;;5030311;28;19967;-60
2022/10/04 15:26:58;;;;;;;;;;;;;;;;;;5030462;28;19929;-60
2022/10/04 15:29:27;;;;;;;;;;;;;;;;;;5031916;28;20412;-60
2022/10/04 15:32:03;;;;;;;;;;;;;;;;;;5033882;28;19932;-60
2022/10/04 15:34:33;;;;;;;;;;;;;;;;;;5033739;28;19936;-60
2022/10/04 15:37:08;;;;;;;;;;;;;;;;;;5033891;28;19929;-60
2022/10/04 15:39:41;;;;;;;;;;;;;;;;;;5033577;28;19932;-60
2022/10/04 15:42:10;;;;;;;;;;;;;;;;;;5034053;28;19929;-60
2022/10/04 15:44:52;;;;;;;;;;;;;;;;;;5033928;28;19932;-60
2022/10/04 15:47:22;;;;;;;;;;;;;;;;;;5034181;28;19932;-60
2022/10/04 15:49:55;;;;;;;;;;;;;;;;;;5033356;28;19925;-60
2022/10/04 15:52:36;;;;;;;;;;;;;;;;;;5033387;28;19929;-60
2022/10/04 15:55:18;;;;;;;;;;;;;;;;;;5000721;28;19925;-60
2022/10/04 15:58:01;;;;;;;;;;;;;;;;;;5033663;28;19972;-60
2022/10/04 16:00:31;;;;;;;;;;;;;;;;;;5033061;28;19925;-60
2022/10/04 16:03:09;;;;;;;;;;;;;;;;;;5033857;28;19925;-60
2022/10/04 16:05:38;;;;;;;;;;;;;;;;;;5033436;28;19925;-60
2022/10/04 16:08:13;;;;;;;;;;;;;;;;;;5033655;28;19976;-59
2022/10/04 16:11:04;;;;;;;;;;;;;;;;;;5033609;28;19929;-60
2022/10/04 16:13:55;;;;;;;;;;;;;;;;;;4977482;28;19930;-60
2022/10/04 16:16:40;;;;;;;;;;;;;;;;;;4977417;28;19926;-60
2022/10/04 16:19:15;;;;;;;;;;;;;;;;;;5033404;28;19932;-59
2022/10/04 16:21:49;;;;;;;;;;;;;;;;;;5033241;28;19925;-59
2022/10/04 16:24:30;;;;;;;;;;;;;;;;;;5033141;28;19925;-59
2022/10/04 16:27:13;;;;;;;;;;;;;;;;;;5020371;28;20253;-59
2022/10/04 16:29:51;;;;;;;;;;;;;;;;;;5032459;28;19928;-59
2022/10/04 16:32:20;;;;;;;;;;;;;;;;;;5032911;28;19925;-59
2022/10/04 16:34:50;;;;;;;;;;;;;;;;;;5032966;28;20293;-59
2022/10/04 16:37:26;;;;;;;;;;;;;;;;;;5032826;28;19930;-58
2022/10/04 16:40:02;;;;;;;;;;;;;;;;;;5032435;28;20013;-60
2022/10/04 16:42:32;;;;;;;;;;;;;;;;;;5033097;28;20217;-60
2022/10/04 16:45:01;;;;;;;;;;;;;;;;;;5032758;28;19925;-60
2022/10/04 16:47:31;;;;;;;;;;;;;;;;;;5033162;28;20335;-61
2022/10/04 16:50:00;;;;;;;;;;;;;;;;;;5032760;28;19925;-59
2022/10/04 16:52:47;;;;;;;;;;;;;;;;;;5032576;28;19926;-59
2022/10/04 16:55:25;;;;;;;;;;;;;;;;;;5032529;28;19995;-59
2022/10/04 16:58:10;;;;;;;;;;;;;;;;;;5032258;28;19929;-60
2022/10/04 17:00:37;;;;;;;;;;;;;;;;;;5031957;28;20330;-59
2022/10/04 17:03:15;;;;;;;;;;;;;;;;;;5032476;28;19999;-61
2022/10/04 17:05:48;;;;;;;;;;;;;;;;;;5032060;28;19949;-60
2022/10/04 17:08:33;;;;;;;;;;;;;;;;;;5032704;28;20275;-60
2022/10/04 17:11:29;;;;;;;;;;;;;;;;;;5032170;28;19971;-61
2022/10/04 17:13:59;;;;;;;;;;;;;;;;;;5031962;28;19925;-61
2022/10/04 17:16:30;;;;;;;;;;;;;;;;;;5032137;28;19964;-61
2022/10/04 17:19:13;;;;;;;;;;;;;;;;;;5032108;28;19925;-60
2022/10/04 17:21:44;;;;;;;;;;;;;;;;;;5031751;28;19925;-60
2022/10/04 17:24:20;;;;;;;;;;;;;;;;;;5031510;28;19925;-60
2022/10/04 17:26:51;;;;;;;;;;;;;;;;;;5031768;28;19925;-62
2022/10/04 17:29:31;;;;;;;;;;;;;;;;;;5031523;28;20023;-59
2022/10/04 17:31:59;;;;;;;;;;;;;;;;;;5031342;28;19929;-61
2022/10/04 17:34:34;;;;;;;;;;;;;;;;;;5031429;28;19983;-62
2022/10/04 17:37:04;;;;;;;;;;;;;;;;;;5031868;28;19925;-59
2022/10/04 17:39:43;;;;;;;;;;;;;;;;;;5031397;28;19932;-58
2022/10/04 17:42:14;;;;;;;;;;;;;;;;;;5031874;28;19968;-61
2022/10/04 17:44:52;;;;;;;;;;;;;;;;;;5031266;28;19983;-58
2022/10/04 17:47:22;;;;;;;;;;;;;;;;;;5031430;28;19949;-59
2022/10/04 17:55:34;;;;;;;;;;;;;;;;;;5031125;28;19932;-65
2022/10/04 17:58:03;;;;;;;;;;;;;;;;;;5030662;28;19929;-58